sensor_id;sensor_type;location;lat;lon;timestamp;temperature;humidity
4637;DHT22;2331;48.806;9.140;2023-03-14T00:00:09;12.70;1.00
4637;DHT22;2331;48.806;9.140;2023-03-14T00:02:37;12.70;1.00
4637;DHT22;2331;48.806;9.140;2023-03-14T00:05:04;12.70;1.00
4637;DHT22;2331;48.806;9.140;2023-03-14T00:07:33;12.70;1.00
4637;DHT22;2331;48.806;9.140;2023-03-14T00:10:03;12.70;1.00
4637;DHT22;2331;48.806;9.140;2023-03-14T00:12:30;12.70;1.00
4637;DHT22;2331;48.806;9.140;2023-03-14T00:14:57;12.70;1.00
4637;DHT22;2331;48.806;9.140;2023-03-14T00:17:25;12.70;1.00
4637;DHT22;2331;48.806;9.140;2023-03-14T00:19:52;12.70;1.00
4637;DHT22;2331;48.806;9.140;2023-03-14T00:22:19;12.70;1.00
4637;DHT22;2331;48.806;9.140;2023-03-14T00:24:46;12.60;1.00
4637;DHT22;2331;48.806;9.140;2023-03-14T00:27:14;12.60;1.00
4637;DHT22;2331;48.806;9.140;2023-03-14T00:29:42;12.60;1.00
4637;DHT22;2331;48.806;9.140;2023-03-14T00:32:09;12.60;1.00
4637;DHT22;2331;48.806;9.140;2023-03-14T00:34:36;12.60;1.00
4637;DHT22;2331;48.806;9.140;2023-03-14T00:37:02;12.60;1.00
4637;DHT22;2331;48.806;9.140;2023-03-14T00:39:29;12.60;1.00
4637;DHT22;2331;48.806;9.140;2023-03-14T00:41:55;12.60;1.00
4637;DHT22;2331;48.806;9.140;2023-03-14T00:44:23;12.60;1.00
4637;DHT22;2331;48.806;9.140;2023-03-14T00:46:50;12.60;1.00
4637;DHT22;2331;48.806;9.140;2023-03-14T00:49:17;12.50;1.00
4637;DHT22;2331;48.806;9.140;2023-03-14T00:51:44;12.50;1.00
4637;DHT22;2331;48.806;9.140;2023-03-14T00:54:10;12.50;1.00
4637;DHT22;2331;48.806;9.140;2023-03-14T00:56:37;12.40;1.00
4637;DHT22;2331;48.806;9.140;2023-03-14T00:59:04;12.50;1.00
4637;DHT22;2331;48.806;9.140;2023-03-14T01:01:32;12.50;1.00
4637;DHT22;2331;48.806;9.140;2023-03-14T01:03:58;12.50;1.00
4637;DHT22;2331;48.806;9.140;2023-03-14T01:06:27;12.50;1.00
4637;DHT22;2331;48.806;9.140;2023-03-14T01:08:54;12.50;1.00
4637;DHT22;2331;48.806;9.140;2023-03-14T01:11:23;12.50;1.00
4637;DHT22;2331;48.806;9.140;2023-03-14T01:13:50;12.50;1.00
4637;DHT22;2331;48.806;9.140;2023-03-14T01:16:19;12.40;1.00
4637;DHT22;2331;48.806;9.140;2023-03-14T01:18:47;12.40;1.00
4637;DHT22;2331;48.806;9.140;2023-03-14T01:21:16;12.50;1.00
4637;DHT22;2331;48.806;9.140;2023-03-14T01:23:44;12.50;1.00
4637;DHT22;2331;48.806;9.140;2023-03-14T01:26:12;12.50;1.00
4637;DHT22;2331;48.806;9.140;2023-03-14T01:28:40;12.50;1.00
4637;DHT22;2331;48.806;9.140;2023-03-14T01:31:08;12.60;1.00
4637;DHT22;2331;48.806;9.140;2023-03-14T01:33:35;12.70;1.00
4637;DHT22;2331;48.806;9.140;2023-03-14T01:36:04;12.50;1.00
4637;DHT22;2331;48.806;9.140;2023-03-14T01:38:32;12.60;1.00
4637;DHT22;2331;48.806;9.140;2023-03-14T01:41:00;12.70;1.00
4637;DHT22;2331;48.806;9.140;2023-03-14T01:43:27;12.60;1.00
4637;DHT22;2331;48.806;9.140;2023-03-14T01:46:22;12.60;1.00
4637;DHT22;2331;48.806;9.140;2023-03-14T01:49:01;12.60;1.00
4637;DHT22;2331;48.806;9.140;2023-03-14T01:51:35;12.60;1.00
4637;DHT22;2331;48.806;9.140;2023-03-14T01:54:06;12.60;1.00
4637;DHT22;2331;48.806;9.140;2023-03-14T01:56:35;12.70;1.00
4637;DHT22;2331;48.806;9.140;2023-03-14T01:59:06;12.60;1.00
4637;DHT22;2331;48.806;9.140;2023-03-14T02:01:34;12.50;1.00
4637;DHT22;2331;48.806;9.140;2023-03-14T02:04:03;12.60;1.00
4637;DHT22;2331;48.806;9.140;2023-03-14T02:06:39;12.60;1.00
4637;DHT22;2331;48.806;9.140;2023-03-14T02:09:07;12.50;1.00
4637;DHT22;2331;48.806;9.140;2023-03-14T02:11:34;12.50;1.00
4637;DHT22;2331;48.806;9.140;2023-03-14T02:14:01;12.40;1.00
4637;DHT22;2331;48.806;9.140;2023-03-14T02:16:28;12.40;1.00
4637;DHT22;2331;48.806;9.140;2023-03-14T02:18:55;12.40;1.00
4637;DHT22;2331;48.806;9.140;2023-03-14T02:21:27;12.50;1.00
4637;DHT22;2331;48.806;9.140;2023-03-14T02:24:07;12.40;1.00
4637;DHT22;2331;48.806;9.140;2023-03-14T02:26:38;12.40;1.00
4637;DHT22;2331;48.806;9.140;2023-03-14T02:29:07;12.30;1.00
4637;DHT22;2331;48.806;9.140;2023-03-14T02:31:34;12.40;1.00
4637;DHT22;2331;48.806;9.140;2023-03-14T02:34:02;12.40;1.00
4637;DHT22;2331;48.806;9.140;2023-03-14T02:36:29;12.40;1.00
4637;DHT22;2331;48.806;9.140;2023-03-14T02:39:02;12.50;1.00
4637;DHT22;2331;48.806;9.140;2023-03-14T02:41:31;12.40;1.00
4637;DHT22;2331;48.806;9.140;2023-03-14T02:43:58;12.30;1.00
4637;DHT22;2331;48.806;9.140;2023-03-14T02:46:26;12.30;1.00
4637;DHT22;2331;48.806;9.140;2023-03-14T02:48:55;12.30;1.00
4637;DHT22;2331;48.806;9.140;2023-03-14T02:51:24;12.30;1.00
4637;DHT22;2331;48.806;9.140;2023-03-14T02:53:52;12.30;1.00
4637;DHT22;2331;48.806;9.140;2023-03-14T02:56:18;12.20;1.00
4637;DHT22;2331;48.806;9.140;2023-03-14T02:58:45;12.20;1.00
4637;DHT22;2331;48.806;9.140;2023-03-14T03:01:12;12.20;1.00
4637;DHT22;2331;48.806;9.140;2023-03-14T03:03:40;12.20;1.00
4637;DHT22;2331;48.806;9.140;2023-03-14T03:06:07;12.20;1.00
4637;DHT22;2331;48.806;9.140;2023-03-14T03:08:34;12.10;1.00
4637;DHT22;2331;48.806;9.140;2023-03-14T03:11:00;12.20;1.00
4637;DHT22;2331;48.806;9.140;2023-03-14T03:13:27;12.20;1.00
4637;DHT22;2331;48.806;9.140;2023-03-14T03:15:54;12.20;1.00
4637;DHT22;2331;48.806;9.140;2023-03-14T03:18:20;12.20;1.00
4637;DHT22;2331;48.806;9.140;2023-03-14T03:20:48;12.20;1.00
4637;DHT22;2331;48.806;9.140;2023-03-14T03:23:15;12.20;1.00
4637;DHT22;2331;48.806;9.140;2023-03-14T03:25:42;12.30;1.00
4637;DHT22;2331;48.806;9.140;2023-03-14T03:28:13;12.20;1.00
4637;DHT22;2331;48.806;9.140;2023-03-14T03:30:41;12.20;1.00
4637;DHT22;2331;48.806;9.140;2023-03-14T03:33:08;12.10;1.00
4637;DHT22;2331;48.806;9.140;2023-03-14T03:35:42;12.20;1.00
4637;DHT22;2331;48.806;9.140;2023-03-14T03:38:10;12.20;1.00
4637;DHT22;2331;48.806;9.140;2023-03-14T03:40:37;12.20;1.00
4637;DHT22;2331;48.806;9.140;2023-03-14T03:43:03;12.20;1.00
4637;DHT22;2331;48.806;9.140;2023-03-14T03:45:30;12.20;1.00
4637;DHT22;2331;48.806;9.140;2023-03-14T03:47:57;12.10;1.00
4637;DHT22;2331;48.806;9.140;2023-03-14T03:50:23;12.10;1.00
4637;DHT22;2331;48.806;9.140;2023-03-14T03:52:50;12.10;1.00
4637;DHT22;2331;48.806;9.140;2023-03-14T03:55:18;12.10;1.00
4637;DHT22;2331;48.806;9.140;2023-03-14T03:57:45;12.00;1.00
4637;DHT22;2331;48.806;9.140;2023-03-14T04:00:12;12.10;1.00
4637;DHT22;2331;48.806;9.140;2023-03-14T04:02:38;12.00;1.00
4637;DHT22;2331;48.806;9.140;2023-03-14T04:05:05;12.00;1.00
4637;DHT22;2331;48.806;9.140;2023-03-14T04:07:32;12.00;1.00
4637;DHT22;2331;48.806;9.140;2023-03-14T04:09:59;12.00;1.00
4637;DHT22;2331;48.806;9.140;2023-03-14T04:12:27;12.00;1.00
4637;DHT22;2331;48.806;9.140;2023-03-14T04:14:54;12.00;1.00
4637;DHT22;2331;48.806;9.140;2023-03-14T04:17:20;12.10;1.00
4637;DHT22;2331;48.806;9.140;2023-03-14T04:19:47;12.20;1.00
4637;DHT22;2331;48.806;9.140;2023-03-14T04:22:16;12.10;1.00
4637;DHT22;2331;48.806;9.140;2023-03-14T04:24:43;12.10;1.00
4637;DHT22;2331;48.806;9.140;2023-03-14T04:27:10;12.10;1.00
4637;DHT22;2331;48.806;9.140;2023-03-14T04:29:38;12.10;1.00
4637;DHT22;2331;48.806;9.140;2023-03-14T04:32:05;12.00;1.00
4637;DHT22;2331;48.806;9.140;2023-03-14T04:34:31;11.80;1.00
4637;DHT22;2331;48.806;9.140;2023-03-14T04:36:58;12.00;1.00
4637;DHT22;2331;48.806;9.140;2023-03-14T04:39:25;11.90;1.00
4637;DHT22;2331;48.806;9.140;2023-03-14T04:41:51;11.80;1.00
4637;DHT22;2331;48.806;9.140;2023-03-14T04:44:18;11.80;1.00
4637;DHT22;2331;48.806;9.140;2023-03-14T04:46:46;11.80;1.00
4637;DHT22;2331;48.806;9.140;2023-03-14T04:49:13;11.90;1.00
4637;DHT22;2331;48.806;9.140;2023-03-14T04:51:39;11.90;1.00
4637;DHT22;2331;48.806;9.140;2023-03-14T04:54:07;11.90;1.00
4637;DHT22;2331;48.806;9.140;2023-03-14T04:56:33;11.90;1.00
4637;DHT22;2331;48.806;9.140;2023-03-14T04:59:00;11.80;1.00
4637;DHT22;2331;48.806;9.140;2023-03-14T05:01:27;11.90;1.00
4637;DHT22;2331;48.806;9.140;2023-03-14T05:03:55;11.80;1.00
4637;DHT22;2331;48.806;9.140;2023-03-14T05:06:21;11.80;1.00
4637;DHT22;2331;48.806;9.140;2023-03-14T05:08:48;11.90;1.00
4637;DHT22;2331;48.806;9.140;2023-03-14T05:11:15;11.80;1.00
4637;DHT22;2331;48.806;9.140;2023-03-14T05:13:41;11.80;1.00
4637;DHT22;2331;48.806;9.140;2023-03-14T05:16:10;11.80;1.00
4637;DHT22;2331;48.806;9.140;2023-03-14T05:18:37;11.80;1.00
4637;DHT22;2331;48.806;9.140;2023-03-14T05:21:05;11.80;1.00
4637;DHT22;2331;48.806;9.140;2023-03-14T05:23:32;11.90;1.00
4637;DHT22;2331;48.806;9.140;2023-03-14T05:25:59;11.80;1.00
4637;DHT22;2331;48.806;9.140;2023-03-14T05:28:25;11.80;1.00
4637;DHT22;2331;48.806;9.140;2023-03-14T05:30:53;11.80;1.00
4637;DHT22;2331;48.806;9.140;2023-03-14T05:33:19;11.70;1.00
4637;DHT22;2331;48.806;9.140;2023-03-14T05:35:46;11.70;1.00
4637;DHT22;2331;48.806;9.140;2023-03-14T05:38:14;11.80;1.00
4637;DHT22;2331;48.806;9.140;2023-03-14T05:40:41;11.70;1.00
4637;DHT22;2331;48.806;9.140;2023-03-14T05:43:07;11.80;1.00
4637;DHT22;2331;48.806;9.140;2023-03-14T05:45:34;11.80;1.00
4637;DHT22;2331;48.806;9.140;2023-03-14T05:48:01;11.60;1.00
4637;DHT22;2331;48.806;9.140;2023-03-14T05:50:28;11.70;1.00
4637;DHT22;2331;48.806;9.140;2023-03-14T05:52:55;11.60;1.00
4637;DHT22;2331;48.806;9.140;2023-03-14T05:55:23;11.60;1.00
4637;DHT22;2331;48.806;9.140;2023-03-14T05:57:49;11.60;1.00
4637;DHT22;2331;48.806;9.140;2023-03-14T06:00:17;11.80;1.00
4637;DHT22;2331;48.806;9.140;2023-03-14T06:02:44;11.80;1.00
4637;DHT22;2331;48.806;9.140;2023-03-14T06:05:11;11.70;1.00
4637;DHT22;2331;48.806;9.140;2023-03-14T06:07:38;11.70;1.00
4637;DHT22;2331;48.806;9.140;2023-03-14T06:10:06;11.80;1.00
4637;DHT22;2331;48.806;9.140;2023-03-14T06:12:34;11.90;1.00
4637;DHT22;2331;48.806;9.140;2023-03-14T06:15:01;11.90;1.00
4637;DHT22;2331;48.806;9.140;2023-03-14T06:17:27;12.10;1.00
4637;DHT22;2331;48.806;9.140;2023-03-14T06:19:54;12.00;1.00
4637;DHT22;2331;48.806;9.140;2023-03-14T06:22:21;12.00;1.00
4637;DHT22;2331;48.806;9.140;2023-03-14T06:24:48;12.00;1.00
4637;DHT22;2331;48.806;9.140;2023-03-14T06:27:14;12.00;1.00
4637;DHT22;2331;48.806;9.140;2023-03-14T06:29:42;11.90;1.00
4637;DHT22;2331;48.806;9.140;2023-03-14T06:32:09;12.00;1.00
4637;DHT22;2331;48.806;9.140;2023-03-14T06:34:36;12.10;1.00
4637;DHT22;2331;48.806;9.140;2023-03-14T06:37:03;12.00;1.00
4637;DHT22;2331;48.806;9.140;2023-03-14T06:39:31;11.90;1.00
4637;DHT22;2331;48.806;9.140;2023-03-14T06:41:57;12.00;1.00
4637;DHT22;2331;48.806;9.140;2023-03-14T06:44:24;12.00;1.00
4637;DHT22;2331;48.806;9.140;2023-03-14T06:46:52;12.10;1.00
4637;DHT22;2331;48.806;9.140;2023-03-14T06:49:19;12.10;1.00
4637;DHT22;2331;48.806;9.140;2023-03-14T06:51:46;12.10;1.00
4637;DHT22;2331;48.806;9.140;2023-03-14T06:54:12;12.10;1.00
4637;DHT22;2331;48.806;9.140;2023-03-14T06:56:39;12.00;1.00
4637;DHT22;2331;48.806;9.140;2023-03-14T06:59:06;12.10;1.00
4637;DHT22;2331;48.806;9.140;2023-03-14T07:01:32;12.00;1.00
4637;DHT22;2331;48.806;9.140;2023-03-14T07:04:01;12.10;1.00
4637;DHT22;2331;48.806;9.140;2023-03-14T07:06:28;12.10;1.00
4637;DHT22;2331;48.806;9.140;2023-03-14T07:08:55;12.20;1.00
4637;DHT22;2331;48.806;9.140;2023-03-14T07:11:22;12.30;1.00
4637;DHT22;2331;48.806;9.140;2023-03-14T07:13:49;12.30;1.00
4637;DHT22;2331;48.806;9.140;2023-03-14T07:16:16;12.30;1.00
4637;DHT22;2331;48.806;9.140;2023-03-14T07:18:42;12.40;1.00
4637;DHT22;2331;48.806;9.140;2023-03-14T07:21:11;12.50;1.00
4637;DHT22;2331;48.806;9.140;2023-03-14T07:23:38;12.50;1.00
4637;DHT22;2331;48.806;9.140;2023-03-14T07:26:05;12.60;1.00
4637;DHT22;2331;48.806;9.140;2023-03-14T07:28:32;12.60;1.00
4637;DHT22;2331;48.806;9.140;2023-03-14T07:30:58;12.60;1.00
4637;DHT22;2331;48.806;9.140;2023-03-14T07:33:25;12.70;1.00
4637;DHT22;2331;48.806;9.140;2023-03-14T07:35:52;12.70;1.00
4637;DHT22;2331;48.806;9.140;2023-03-14T07:38:20;12.80;1.00
4637;DHT22;2331;48.806;9.140;2023-03-14T07:40:46;12.80;1.00
4637;DHT22;2331;48.806;9.140;2023-03-14T07:43:13;12.70;1.00
4637;DHT22;2331;48.806;9.140;2023-03-14T07:45:40;12.70;1.00
4637;DHT22;2331;48.806;9.140;2023-03-14T07:48:06;12.80;1.00
4637;DHT22;2331;48.806;9.140;2023-03-14T07:50:33;12.90;1.00
4637;DHT22;2331;48.806;9.140;2023-03-14T07:52:59;13.00;1.00
4637;DHT22;2331;48.806;9.140;2023-03-14T07:55:27;13.00;1.00
4637;DHT22;2331;48.806;9.140;2023-03-14T07:57:54;13.10;1.00
4637;DHT22;2331;48.806;9.140;2023-03-14T08:00:21;13.10;1.00
4637;DHT22;2331;48.806;9.140;2023-03-14T08:02:48;13.20;1.00
4637;DHT22;2331;48.806;9.140;2023-03-14T08:05:15;13.20;1.00
4637;DHT22;2331;48.806;9.140;2023-03-14T08:07:41;13.30;1.00
4637;DHT22;2331;48.806;9.140;2023-03-14T08:10:09;13.40;1.00
4637;DHT22;2331;48.806;9.140;2023-03-14T08:12:39;13.50;1.00
4637;DHT22;2331;48.806;9.140;2023-03-14T08:15:07;13.50;1.00
4637;DHT22;2331;48.806;9.140;2023-03-14T08:17:33;13.40;1.00
4637;DHT22;2331;48.806;9.140;2023-03-14T08:20:00;13.50;1.00
4637;DHT22;2331;48.806;9.140;2023-03-14T08:22:27;13.60;1.00
4637;DHT22;2331;48.806;9.140;2023-03-14T08:24:53;13.60;1.00
4637;DHT22;2331;48.806;9.140;2023-03-14T08:27:20;13.70;1.00
4637;DHT22;2331;48.806;9.140;2023-03-14T08:29:48;13.60;1.00
4637;DHT22;2331;48.806;9.140;2023-03-14T08:32:15;13.60;1.00
4637;DHT22;2331;48.806;9.140;2023-03-14T08:34:41;13.70;1.00
4637;DHT22;2331;48.806;9.140;2023-03-14T08:37:08;13.70;1.00
4637;DHT22;2331;48.806;9.140;2023-03-14T08:39:35;13.50;1.00
4637;DHT22;2331;48.806;9.140;2023-03-14T08:42:02;13.50;1.00
4637;DHT22;2331;48.806;9.140;2023-03-14T08:44:29;13.60;1.00
4637;DHT22;2331;48.806;9.140;2023-03-14T08:46:57;13.70;1.00
4637;DHT22;2331;48.806;9.140;2023-03-14T08:49:24;13.80;1.00
4637;DHT22;2331;48.806;9.140;2023-03-14T08:51:51;13.70;1.00
4637;DHT22;2331;48.806;9.140;2023-03-14T08:54:18;13.90;1.00
4637;DHT22;2331;48.806;9.140;2023-03-14T08:56:45;13.80;1.00
4637;DHT22;2331;48.806;9.140;2023-03-14T08:59:11;13.80;1.00
4637;DHT22;2331;48.806;9.140;2023-03-14T09:01:38;13.90;1.00
4637;DHT22;2331;48.806;9.140;2023-03-14T09:04:06;14.10;1.00
4637;DHT22;2331;48.806;9.140;2023-03-14T09:06:33;14.10;1.00
4637;DHT22;2331;48.806;9.140;2023-03-14T09:08:59;14.10;1.00
4637;DHT22;2331;48.806;9.140;2023-03-14T09:11:26;14.10;1.00
4637;DHT22;2331;48.806;9.140;2023-03-14T09:13:53;14.10;1.00
4637;DHT22;2331;48.806;9.140;2023-03-14T09:16:20;14.00;1.00
4637;DHT22;2331;48.806;9.140;2023-03-14T09:18:46;14.10;1.00
4637;DHT22;2331;48.806;9.140;2023-03-14T09:21:14;14.10;1.00
4637;DHT22;2331;48.806;9.140;2023-03-14T09:23:41;14.10;1.00
4637;DHT22;2331;48.806;9.140;2023-03-14T09:26:08;14.10;1.00
4637;DHT22;2331;48.806;9.140;2023-03-14T09:28:34;14.00;1.00
4637;DHT22;2331;48.806;9.140;2023-03-14T09:31:06;14.10;1.00
4637;DHT22;2331;48.806;9.140;2023-03-14T09:33:33;14.10;1.00
4637;DHT22;2331;48.806;9.140;2023-03-14T09:35:59;14.10;1.00
4637;DHT22;2331;48.806;9.140;2023-03-14T09:38:27;14.10;1.00
4637;DHT22;2331;48.806;9.140;2023-03-14T09:40:55;14.10;1.00
4637;DHT22;2331;48.806;9.140;2023-03-14T09:43:24;14.00;1.00
4637;DHT22;2331;48.806;9.140;2023-03-14T09:45:52;14.10;1.00
4637;DHT22;2331;48.806;9.140;2023-03-14T09:48:21;14.20;1.00
4637;DHT22;2331;48.806;9.140;2023-03-14T09:50:50;14.10;1.00
4637;DHT22;2331;48.806;9.140;2023-03-14T09:53:20;14.20;1.00
4637;DHT22;2331;48.806;9.140;2023-03-14T09:55:50;14.10;1.00
4637;DHT22;2331;48.806;9.140;2023-03-14T09:58:19;14.30;1.00
4637;DHT22;2331;48.806;9.140;2023-03-14T10:00:47;14.30;1.00
4637;DHT22;2331;48.806;9.140;2023-03-14T10:03:29;14.30;1.00
4637;DHT22;2331;48.806;9.140;2023-03-14T10:05:58;14.40;1.00
4637;DHT22;2331;48.806;9.140;2023-03-14T10:08:25;14.40;1.00
4637;DHT22;2331;48.806;9.140;2023-03-14T10:10:53;14.50;1.00
4637;DHT22;2331;48.806;9.140;2023-03-14T10:13:21;14.30;1.00
4637;DHT22;2331;48.806;9.140;2023-03-14T10:15:53;14.40;1.00
4637;DHT22;2331;48.806;9.140;2023-03-14T10:18:21;14.40;1.00
4637;DHT22;2331;48.806;9.140;2023-03-14T10:20:52;14.60;1.00
4637;DHT22;2331;48.806;9.140;2023-03-14T10:23:29;14.60;1.00
4637;DHT22;2331;48.806;9.140;2023-03-14T10:26:08;14.80;1.00
4637;DHT22;2331;48.806;9.140;2023-03-14T10:28:39;14.80;1.00
4637;DHT22;2331;48.806;9.140;2023-03-14T10:31:06;14.80;1.00
4637;DHT22;2331;48.806;9.140;2023-03-14T10:33:34;14.80;1.00
4637;DHT22;2331;48.806;9.140;2023-03-14T10:36:03;14.90;1.00
4637;DHT22;2331;48.806;9.140;2023-03-14T10:38:31;14.90;1.00
4637;DHT22;2331;48.806;9.140;2023-03-14T10:40:59;14.90;1.00
4637;DHT22;2331;48.806;9.140;2023-03-14T10:43:31;15.00;1.00
4637;DHT22;2331;48.806;9.140;2023-03-14T10:46:01;15.00;1.00
4637;DHT22;2331;48.806;9.140;2023-03-14T10:48:32;14.80;1.00
4637;DHT22;2331;48.806;9.140;2023-03-14T10:51:04;14.80;1.00
4637;DHT22;2331;48.806;9.140;2023-03-14T10:53:42;14.90;1.00
4637;DHT22;2331;48.806;9.140;2023-03-14T10:56:12;14.90;1.00
4637;DHT22;2331;48.806;9.140;2023-03-14T10:58:42;14.70;1.00
4637;DHT22;2331;48.806;9.140;2023-03-14T11:01:24;14.70;1.00
4637;DHT22;2331;48.806;9.140;2023-03-14T11:03:56;14.60;1.00
4637;DHT22;2331;48.806;9.140;2023-03-14T11:06:29;14.60;1.00
4637;DHT22;2331;48.806;9.140;2023-03-14T11:09:07;14.60;1.00
4637;DHT22;2331;48.806;9.140;2023-03-14T11:11:37;14.70;1.00
4637;DHT22;2331;48.806;9.140;2023-03-14T11:14:17;14.70;1.00
4637;DHT22;2331;48.806;9.140;2023-03-14T11:16:52;14.80;1.00
4637;DHT22;2331;48.806;9.140;2023-03-14T11:19:28;14.60;1.00
4637;DHT22;2331;48.806;9.140;2023-03-14T11:22:03;14.40;1.00
4637;DHT22;2331;48.806;9.140;2023-03-14T11:24:44;14.20;1.00
4637;DHT22;2331;48.806;9.140;2023-03-14T11:27:17;14.10;1.00
4637;DHT22;2331;48.806;9.140;2023-03-14T11:29:54;14.00;1.00
4637;DHT22;2331;48.806;9.140;2023-03-14T11:32:32;13.90;1.00
4637;DHT22;2331;48.806;9.140;2023-03-14T11:35:05;13.90;1.00
4637;DHT22;2331;48.806;9.140;2023-03-14T11:37:45;13.80;1.00
4637;DHT22;2331;48.806;9.140;2023-03-14T11:40:14;13.50;1.00
4637;DHT22;2331;48.806;9.140;2023-03-14T11:42:44;13.60;1.00
4637;DHT22;2331;48.806;9.140;2023-03-14T11:45:19;13.40;1.00
4637;DHT22;2331;48.806;9.140;2023-03-14T11:47:51;13.20;1.00
4637;DHT22;2331;48.806;9.140;2023-03-14T11:50:22;13.40;1.00
4637;DHT22;2331;48.806;9.140;2023-03-14T11:52:53;13.30;1.00
4637;DHT22;2331;48.806;9.140;2023-03-14T11:55:24;13.30;1.00
4637;DHT22;2331;48.806;9.140;2023-03-14T11:57:58;13.20;1.00
4637;DHT22;2331;48.806;9.140;2023-03-14T12:00:28;13.10;1.00
4637;DHT22;2331;48.806;9.140;2023-03-14T12:03:00;13.10;1.00
4637;DHT22;2331;48.806;9.140;2023-03-14T12:05:45;13.10;1.00
4637;DHT22;2331;48.806;9.140;2023-03-14T12:08:37;13.20;1.00
4637;DHT22;2331;48.806;9.140;2023-03-14T12:11:10;13.30;1.00
4637;DHT22;2331;48.806;9.140;2023-03-14T12:13:40;13.40;1.00
4637;DHT22;2331;48.806;9.140;2023-03-14T12:16:35;13.40;1.00
4637;DHT22;2331;48.806;9.140;2023-03-14T12:19:33;13.20;1.00
4637;DHT22;2331;48.806;9.140;2023-03-14T12:22:07;13.10;1.00
4637;DHT22;2331;48.806;9.140;2023-03-14T12:24:37;12.70;1.00
4637;DHT22;2331;48.806;9.140;2023-03-14T12:27:05;12.60;1.00
4637;DHT22;2331;48.806;9.140;2023-03-14T12:29:57;12.50;1.00
4637;DHT22;2331;48.806;9.140;2023-03-14T12:32:26;12.70;1.00
4637;DHT22;2331;48.806;9.140;2023-03-14T12:34:53;12.60;1.00
4637;DHT22;2331;48.806;9.140;2023-03-14T12:37:28;12.50;1.00
4637;DHT22;2331;48.806;9.140;2023-03-14T12:40:06;12.60;1.00
4637;DHT22;2331;48.806;9.140;2023-03-14T12:42:45;12.60;1.00
4637;DHT22;2331;48.806;9.140;2023-03-14T12:45:26;12.20;1.00
4637;DHT22;2331;48.806;9.140;2023-03-14T12:48:00;12.50;1.00
4637;DHT22;2331;48.806;9.140;2023-03-14T12:50:36;12.40;1.00
4637;DHT22;2331;48.806;9.140;2023-03-14T12:53:35;12.20;1.00
4637;DHT22;2331;48.806;9.140;2023-03-14T12:56:11;11.90;1.00
4637;DHT22;2331;48.806;9.140;2023-03-14T12:58:47;12.10;1.00
4637;DHT22;2331;48.806;9.140;2023-03-14T13:01:17;11.90;1.00
4637;DHT22;2331;48.806;9.140;2023-03-14T13:03:47;12.10;1.00
4637;DHT22;2331;48.806;9.140;2023-03-14T13:06:49;12.10;1.00
4637;DHT22;2331;48.806;9.140;2023-03-14T13:12:30;12.20;1.00
4637;DHT22;2331;48.806;9.140;2023-03-14T13:15:01;12.00;1.00
4637;DHT22;2331;48.806;9.140;2023-03-14T13:17:40;11.70;1.00
4637;DHT22;2331;48.806;9.140;2023-03-14T13:20:14;11.80;1.00
4637;DHT22;2331;48.806;9.140;2023-03-14T13:22:47;11.40;1.00
4637;DHT22;2331;48.806;9.140;2023-03-14T13:25:14;11.60;1.00
4637;DHT22;2331;48.806;9.140;2023-03-14T13:27:42;11.30;1.00
4637;DHT22;2331;48.806;9.140;2023-03-14T13:30:18;11.40;1.00
4637;DHT22;2331;48.806;9.140;2023-03-14T13:32:46;11.40;1.00
4637;DHT22;2331;48.806;9.140;2023-03-14T13:35:21;11.60;1.00
4637;DHT22;2331;48.806;9.140;2023-03-14T13:37:54;11.40;1.00
4637;DHT22;2331;48.806;9.140;2023-03-14T13:40:26;11.60;1.00
4637;DHT22;2331;48.806;9.140;2023-03-14T13:43:10;11.50;1.00
4637;DHT22;2331;48.806;9.140;2023-03-14T13:45:45;11.50;1.00
4637;DHT22;2331;48.806;9.140;2023-03-14T13:48:14;11.50;1.00
4637;DHT22;2331;48.806;9.140;2023-03-14T13:50:49;11.50;1.00
4637;DHT22;2331;48.806;9.140;2023-03-14T13:53:16;11.60;1.00
4637;DHT22;2331;48.806;9.140;2023-03-14T13:55:43;11.60;1.00
4637;DHT22;2331;48.806;9.140;2023-03-14T13:58:19;11.50;1.00
4637;DHT22;2331;48.806;9.140;2023-03-14T14:00:58;11.50;1.00
4637;DHT22;2331;48.806;9.140;2023-03-14T14:03:26;11.20;1.00
4637;DHT22;2331;48.806;9.140;2023-03-14T14:05:56;11.20;1.00
4637;DHT22;2331;48.806;9.140;2023-03-14T14:08:24;11.00;1.00
4637;DHT22;2331;48.806;9.140;2023-03-14T14:10:57;11.10;1.00
4637;DHT22;2331;48.806;9.140;2023-03-14T14:13:25;11.00;1.00
4637;DHT22;2331;48.806;9.140;2023-03-14T14:15:55;10.90;1.00
4637;DHT22;2331;48.806;9.140;2023-03-14T14:18:25;10.80;1.00
4637;DHT22;2331;48.806;9.140;2023-03-14T14:20:53;10.70;1.00
4637;DHT22;2331;48.806;9.140;2023-03-14T14:23:23;10.50;1.00
4637;DHT22;2331;48.806;9.140;2023-03-14T14:25:51;10.80;1.00
4637;DHT22;2331;48.806;9.140;2023-03-14T14:28:24;10.90;1.00
4637;DHT22;2331;48.806;9.140;2023-03-14T14:31:16;11.00;1.00
4637;DHT22;2331;48.806;9.140;2023-03-14T14:33:46;10.80;1.00
4637;DHT22;2331;48.806;9.140;2023-03-14T14:36:17;10.90;1.00
4637;DHT22;2331;48.806;9.140;2023-03-14T14:38:58;11.10;1.00
4637;DHT22;2331;48.806;9.140;2023-03-14T14:41:33;10.90;1.00
4637;DHT22;2331;48.806;9.140;2023-03-14T14:44:00;11.00;1.00
4637;DHT22;2331;48.806;9.140;2023-03-14T14:46:30;10.90;1.00
4637;DHT22;2331;48.806;9.140;2023-03-14T14:49:03;10.70;1.00
4637;DHT22;2331;48.806;9.140;2023-03-14T14:51:38;10.70;1.00
4637;DHT22;2331;48.806;9.140;2023-03-14T14:54:13;10.80;1.00
4637;DHT22;2331;48.806;9.140;2023-03-14T14:56:40;10.70;1.00
4637;DHT22;2331;48.806;9.140;2023-03-14T14:59:21;10.90;1.00
4637;DHT22;2331;48.806;9.140;2023-03-14T15:01:48;10.80;1.00
4637;DHT22;2331;48.806;9.140;2023-03-14T15:04:16;10.70;1.00
4637;DHT22;2331;48.806;9.140;2023-03-14T15:06:44;10.70;1.00
4637;DHT22;2331;48.806;9.140;2023-03-14T15:09:15;10.90;1.00
4637;DHT22;2331;48.806;9.140;2023-03-14T15:11:42;10.90;1.00
4637;DHT22;2331;48.806;9.140;2023-03-14T15:14:09;11.00;1.00
4637;DHT22;2331;48.806;9.140;2023-03-14T15:16:36;10.90;1.00
4637;DHT22;2331;48.806;9.140;2023-03-14T15:19:10;11.00;1.00
4637;DHT22;2331;48.806;9.140;2023-03-14T15:21:38;11.00;1.00
4637;DHT22;2331;48.806;9.140;2023-03-14T15:24:05;11.00;1.00
4637;DHT22;2331;48.806;9.140;2023-03-14T15:26:33;11.00;1.00
4637;DHT22;2331;48.806;9.140;2023-03-14T15:29:00;11.00;1.00
4637;DHT22;2331;48.806;9.140;2023-03-14T15:31:26;10.90;1.00
4637;DHT22;2331;48.806;9.140;2023-03-14T15:33:53;11.10;1.00
4637;DHT22;2331;48.806;9.140;2023-03-14T15:36:22;11.10;1.00
4637;DHT22;2331;48.806;9.140;2023-03-14T15:38:50;10.80;1.00
4637;DHT22;2331;48.806;9.140;2023-03-14T15:41:18;10.90;1.00
4637;DHT22;2331;48.806;9.140;2023-03-14T15:43:47;10.90;1.00
4637;DHT22;2331;48.806;9.140;2023-03-14T15:46:14;11.10;1.00
4637;DHT22;2331;48.806;9.140;2023-03-14T15:48:43;11.00;1.00
4637;DHT22;2331;48.806;9.140;2023-03-14T15:51:09;11.00;1.00
4637;DHT22;2331;48.806;9.140;2023-03-14T15:53:37;11.00;1.00
4637;DHT22;2331;48.806;9.140;2023-03-14T15:56:05;11.20;1.00
4637;DHT22;2331;48.806;9.140;2023-03-14T15:58:32;11.10;1.00
4637;DHT22;2331;48.806;9.140;2023-03-14T16:01:01;11.10;1.00
4637;DHT22;2331;48.806;9.140;2023-03-14T16:03:28;11.20;1.00
4637;DHT22;2331;48.806;9.140;2023-03-14T16:05:55;11.20;1.00
4637;DHT22;2331;48.806;9.140;2023-03-14T16:08:22;11.00;1.00
4637;DHT22;2331;48.806;9.140;2023-03-14T16:10:50;11.10;1.00
4637;DHT22;2331;48.806;9.140;2023-03-14T16:13:18;10.90;1.00
4637;DHT22;2331;48.806;9.140;2023-03-14T16:15:53;11.00;1.00
4637;DHT22;2331;48.806;9.140;2023-03-14T16:18:21;11.20;1.00
4637;DHT22;2331;48.806;9.140;2023-03-14T16:20:55;11.00;1.00
4637;DHT22;2331;48.806;9.140;2023-03-14T16:23:23;10.70;1.00
4637;DHT22;2331;48.806;9.140;2023-03-14T16:25:50;10.70;1.00
4637;DHT22;2331;48.806;9.140;2023-03-14T16:28:17;10.70;1.00
4637;DHT22;2331;48.806;9.140;2023-03-14T16:30:44;10.60;1.00
4637;DHT22;2331;48.806;9.140;2023-03-14T16:33:12;10.80;1.00